Time;durP1;ratioP1;P1;durP2;ratioP2;P2;SDS_P1;SDS_P2;PMS_P1;PMS_P2;Temp;Humidity;BMP_temperature;BMP_pressure;BME280_temperature;BME280_humidity;BME280_pressure;Samples;Min_cycle;Max_cycle;Signal;HPM_P1;HPM_P2
2024/04/01 00:01:54;;;;;;;;;;;;;;;18.77;45.66;97612.22;10413914;27;1040;-71
2024/04/01 00:06:50;;;;;;;;;;;;;;;18.76;45.74;97600.00;10413790;28;1889;-71
2024/04/01 00:11:46;;;;;;;;;;;;;;;18.77;45.85;97611.38;10414085;28;882;-71
2024/04/01 00:16:43;;;;;;;;;;;;;;;18.76;45.89;97609.72;10413339;28;851;-71
2024/04/01 00:21:38;;;;;;;;;;;;;;;18.73;45.69;97602.84;10413752;28;852;-71
2024/04/01 00:26:34;;;;;;;;;;;;;;;18.73;45.84;97609.91;10412482;27;1917;-71
2024/04/01 00:31:30;;;;;;;;;;;;;;;18.72;45.80;97608.25;10412796;28;795;-71
2024/04/01 00:36:26;;;;;;;;;;;;;;;18.71;45.72;97599.50;10412623;28;810;-71
2024/04/01 00:41:22;;;;;;;;;;;;;;;18.70;45.96;97573.22;10413029;28;830;-71
2024/04/01 00:46:18;;;;;;;;;;;;;;;18.68;45.81;97554.88;10412140;28;838;-71
2024/04/01 00:51:14;;;;;;;;;;;;;;;18.68;45.93;97548.75;10411947;28;1959;-71
2024/04/01 00:56:10;;;;;;;;;;;;;;;18.66;45.89;97542.78;10412520;28;830;-71
2024/04/01 01:01:07;;;;;;;;;;;;;;;18.66;45.75;97553.34;10412166;28;770;-71
2024/04/01 01:06:03;;;;;;;;;;;;;;;18.64;45.83;97548.16;10411322;28;889;-71
2024/04/01 01:10:59;;;;;;;;;;;;;;;18.63;45.75;97538.59;10411136;28;1964;-71
2024/04/01 01:15:54;;;;;;;;;;;;;;;18.62;45.86;97521.06;10411042;28;843;-71
2024/04/01 01:20:50;;;;;;;;;;;;;;;18.61;45.97;97511.50;10410300;28;818;-71
2024/04/01 01:25:46;;;;;;;;;;;;;;;18.59;45.79;97495.78;10410632;28;1312;-71
2024/04/01 01:30:42;;;;;;;;;;;;;;;18.58;45.87;97499.38;10410332;28;1978;-71
2024/04/01 01:35:38;;;;;;;;;;;;;;;18.57;45.73;97502.97;10411280;28;852;-71
2024/04/01 01:40:34;;;;;;;;;;;;;;;18.56;45.80;97495.19;10410012;28;909;-71
2024/04/01 01:45:30;;;;;;;;;;;;;;;18.54;45.74;97482.13;10409905;28;778;-72
2024/04/01 01:50:26;;;;;;;;;;;;;;;18.53;45.88;97477.81;10409550;28;1897;-71
2024/04/01 01:55:21;;;;;;;;;;;;;;;18.53;45.79;97467.28;10410310;28;857;-71
2024/04/01 02:00:17;;;;;;;;;;;;;;;18.51;45.82;97471.81;10409412;27;857;-71
2024/04/01 02:05:13;;;;;;;;;;;;;;;18.50;45.88;97470.16;10408394;28;1157;-71
2024/04/01 02:10:09;;;;;;;;;;;;;;;18.50;45.85;97487.78;10408246;28;1954;-71
2024/04/01 02:15:06;;;;;;;;;;;;;;;18.48;46.01;97489.72;10408762;27;818;-71
2024/04/01 02:20:11;;;;;;;;;;;;;;;18.47;45.82;97494.16;10408491;28;829;-71
2024/04/01 02:25:08;;;;;;;;;;;;;;;18.47;45.75;97495.94;10408435;28;1442;-71
2024/04/01 02:30:04;;;;;;;;;;;;;;;18.45;45.93;97480.25;10408127;28;1967;-71
2024/04/01 02:34:59;;;;;;;;;;;;;;;18.45;45.90;97485.53;10407650;28;873;-71
2024/04/01 02:39:55;;;;;;;;;;;;;;;18.44;45.87;97475.09;10408052;28;833;-71
2024/04/01 02:44:51;;;;;;;;;;;;;;;18.42;45.95;97475.22;10408547;28;865;-71
2024/04/01 02:49:47;;;;;;;;;;;;;;;18.40;45.83;97480.63;10408416;28;1897;-71
2024/04/01 02:54:43;;;;;;;;;;;;;;;18.41;45.96;97476.19;10408093;28;833;-71
2024/04/01 02:59:39;;;;;;;;;;;;;;;18.40;45.99;97466.59;10407625;28;775;-71
2024/04/01 03:04:35;;;;;;;;;;;;;;;18.39;45.98;97460.50;10407780;28;810;-71
2024/04/01 03:09:31;;;;;;;;;;;;;;;18.38;45.95;97457.97;10408132;28;1981;-71
2024/04/01 03:14:26;;;;;;;;;;;;;;;18.37;45.75;97453.66;10407881;28;845;-71
2024/04/01 03:19:22;;;;;;;;;;;;;;;18.35;46.06;97439.78;10406632;28;867;-71
2024/04/01 03:24:18;;;;;;;;;;;;;;;18.36;45.95;97430.88;10407033;28;1517;-71
2024/04/01 03:29:14;;;;;;;;;;;;;;;18.33;45.87;97418.78;10407875;28;1962;-71
2024/04/01 03:34:10;;;;;;;;;;;;;;;18.33;46.07;97431.97;10407092;28;984;-71
2024/04/01 03:39:08;;;;;;;;;;;;;;;18.33;46.14;97410.03;10406543;28;1768;-71
2024/04/01 03:44:04;;;;;;;;;;;;;;;18.31;45.82;97404.06;10409899;28;884;-72
2024/04/01 03:48:59;;;;;;;;;;;;;;;18.30;45.91;97407.66;10414802;28;1889;-71
2024/04/01 03:53:55;;;;;;;;;;;;;;;18.29;45.98;97396.28;10414920;28;896;-71
2024/04/01 03:58:51;;;;;;;;;;;;;;;18.28;46.08;97394.59;10414759;28;880;-71
2024/04/01 04:03:47;;;;;;;;;;;;;;;18.29;45.90;97384.91;10414606;28;837;-71
2024/04/01 04:08:47;;;;;;;;;;;;;;;18.28;45.98;97373.50;10414295;28;1953;-71
2024/04/01 04:13:42;;;;;;;;;;;;;;;18.28;45.90;97368.22;10414689;28;864;-71
2024/04/01 04:18:38;;;;;;;;;;;;;;;18.28;45.79;97368.22;10413891;28;889;-71
2024/04/01 04:23:34;;;;;;;;;;;;;;;18.29;45.86;97375.19;10413140;28;961;-71
2024/04/01 04:28:30;;;;;;;;;;;;;;;18.32;45.99;97380.19;10413393;28;1914;-71
2024/04/01 04:33:26;;;;;;;;;;;;;;;18.32;45.80;97374.94;10412175;28;1164;-71
2024/04/01 04:38:22;;;;;;;;;;;;;;;18.35;45.87;97387.03;10412636;28;865;-72
2024/04/01 04:43:18;;;;;;;;;;;;;;;18.37;46.08;97388.56;10412910;28;852;-71
2024/04/01 04:48:14;;;;;;;;;;;;;;;18.39;45.87;97417.44;10412143;28;1897;-71
2024/04/01 04:53:09;;;;;;;;;;;;;;;18.42;45.82;97433.03;10412851;28;939;-71
2024/04/01 04:58:05;;;;;;;;;;;;;;;18.44;46.00;97438.16;10409608;28;815;-71
2024/04/01 05:03:04;;;;;;;;;;;;;;;18.45;45.89;97447.78;10411625;28;822;-71
2024/04/01 05:08:03;;;;;;;;;;;;;;;18.47;46.03;97462.50;10411114;28;1960;-71
2024/04/01 05:12:59;;;;;;;;;;;;;;;18.49;45.88;97455.28;10411152;28;823;-71
2024/04/01 05:17:56;;;;;;;;;;;;;;;18.51;45.91;97457.81;10411528;27;784;-71
2024/04/01 05:22:51;;;;;;;;;;;;;;;18.52;46.03;97462.97;10410642;28;928;-71
2024/04/01 05:27:47;;;;;;;;;;;;;;;18.53;46.15;97471.72;10410863;28;1981;-72
2024/04/01 05:32:43;;;;;;;;;;;;;;;18.53;45.85;97472.53;10410993;27;871;-71
2024/04/01 05:37:41;;;;;;;;;;;;;;;18.56;45.99;97482.84;10410113;28;834;-71
2024/04/01 05:42:36;;;;;;;;;;;;;;;18.56;45.87;97488.13;10409879;28;964;-72
2024/04/01 05:47:32;;;;;;;;;;;;;;;18.58;46.02;97491.47;10409706;28;1952;-71
2024/04/01 05:52:28;;;;;;;;;;;;;;;18.59;45.94;97498.41;10409484;28;885;-72
2024/04/01 05:57:24;;;;;;;;;;;;;;;18.60;45.86;97492.19;10409373;28;1051;-72
2024/04/01 06:02:20;;;;;;;;;;;;;;;18.61;46.01;97488.56;10408649;28;834;-72
2024/04/01 06:07:16;;;;;;;;;;;;;;;18.62;45.92;97482.31;10408744;28;1957;-71
2024/04/01 06:12:12;;;;;;;;;;;;;;;18.64;45.99;97484.00;10410043;28;854;-72
2024/04/01 06:17:08;;;;;;;;;;;;;;;18.64;45.86;97484.84;10409185;28;873;-71
2024/04/01 06:22:04;;;;;;;;;;;;;;;18.65;45.82;97480.41;10408422;28;877;-72
2024/04/01 06:26:59;;;;;;;;;;;;;;;18.66;45.97;97472.38;10407953;28;1909;-72
2024/04/01 06:31:55;;;;;;;;;;;;;;;18.67;45.89;97467.91;10408234;28;785;-71
2024/04/01 06:36:51;;;;;;;;;;;;;;;18.68;46.02;97464.31;10407992;28;873;-70
2024/04/01 06:41:47;;;;;;;;;;;;;;;18.69;45.92;97461.56;10408580;28;806;-71
2024/04/01 06:46:43;;;;;;;;;;;;;;;18.69;45.97;97464.19;10407739;28;1893;-71
2024/04/01 06:51:39;;;;;;;;;;;;;;;18.71;45.89;97469.34;10407753;28;911;-71
2024/04/01 06:56:35;;;;;;;;;;;;;;;18.70;45.95;97465.84;10407626;28;810;-71
2024/04/01 07:01:31;;;;;;;;;;;;;;;18.71;45.91;97472.81;10407553;28;757;-71
2024/04/01 07:06:26;;;;;;;;;;;;;;;18.72;46.06;97476.28;10407334;28;865;-71
2024/04/01 07:11:22;;;;;;;;;;;;;;;18.71;46.02;97474.63;10407244;28;1952;-72
2024/04/01 07:16:18;;;;;;;;;;;;;;;18.70;46.05;97489.59;10407262;28;878;-70
2024/04/01 07:21:14;;;;;;;;;;;;;;;18.70;46.08;97496.69;10414274;28;842;-71
2024/04/01 07:26:10;;;;;;;;;;;;;;;18.70;46.02;97509.88;10415612;28;1947;-70
2024/04/01 07:31:06;;;;;;;;;;;;;;;18.69;46.04;97518.78;10415180;28;1977;-71
2024/04/01 07:36:02;;;;;;;;;;;;;;;18.68;46.05;97514.44;10415751;28;912;-71
2024/04/01 07:40:57;;;;;;;;;;;;;;;18.69;46.02;97510.84;10414976;28;913;-71
2024/04/01 07:45:54;;;;;;;;;;;;;;;18.67;46.07;97499.59;10414613;28;867;-71
2024/04/01 07:50:50;;;;;;;;;;;;;;;18.68;46.04;97507.38;10414912;28;1890;-71
2024/04/01 07:55:45;;;;;;;;;;;;;;;18.70;46.20;97499.31;10414233;28;778;-77
2024/04/01 08:00:41;;;;;;;;;;;;;;;18.69;45.94;97505.59;10414653;27;857;-72
2024/04/01 08:05:38;;;;;;;;;;;;;;;18.71;46.22;97516.84;10413966;28;769;-71
2024/04/01 08:10:34;;;;;;;;;;;;;;;18.71;46.28;97527.41;10413620;28;1947;-71
2024/04/01 08:15:30;;;;;;;;;;;;;;;18.71;46.06;97527.41;10413420;27;864;-70
2024/04/01 08:20:26;;;;;;;;;;;;;;;18.71;46.23;97525.59;10412780;28;846;-71
2024/04/01 08:25:22;;;;;;;;;;;;;;;18.73;46.28;97533.38;10413271;28;1260;-71
2024/04/01 08:30:17;;;;;;;;;;;;;;;18.73;46.27;97533.38;10412130;28;1902;-71
2024/04/01 08:35:13;;;;;;;;;;;;;;;18.73;46.19;97547.44;10412640;28;1147;-71
2024/04/01 08:40:10;;;;;;;;;;;;;;;18.73;46.44;97534.25;10412477;28;774;-70
2024/04/01 08:45:06;;;;;;;;;;;;;;;18.74;46.38;97532.44;10411526;28;841;-75
2024/04/01 08:50:02;;;;;;;;;;;;;;;18.73;46.26;97530.72;10411977;28;1932;-71
2024/04/01 08:54:57;;;;;;;;;;;;;;;18.73;46.35;97530.72;10412514;28;885;-70
2024/04/01 08:59:53;;;;;;;;;;;;;;;18.74;46.55;97532.44;10411830;28;858;-72
2024/04/01 09:04:49;;;;;;;;;;;;;;;18.73;46.44;97536.88;10411562;28;897;-72
2024/04/01 09:09:45;;;;;;;;;;;;;;;18.73;46.61;97538.66;10411958;28;1897;-70
2024/04/01 09:14:41;;;;;;;;;;;;;;;18.73;46.55;97543.94;10411976;28;874;-73
2024/04/01 09:19:37;;;;;;;;;;;;;;;18.74;46.51;97546.47;10412073;28;845;-71
2024/04/01 09:24:33;;;;;;;;;;;;;;;18.75;46.54;97552.59;10410753;28;1396;-71
2024/04/01 09:29:31;;;;;;;;;;;;;;;18.75;46.64;97552.59;10410872;28;1890;-71
2024/04/01 09:34:27;;;;;;;;;;;;;;;18.74;46.77;97557.00;10411022;28;782;-71
2024/04/01 09:39:23;;;;;;;;;;;;;;;18.76;46.64;97570.97;10410556;28;818;-70
2024/04/01 09:44:19;;;;;;;;;;;;;;;18.76;46.67;97565.69;10409821;28;1047;-70
2024/04/01 09:49:14;;;;;;;;;;;;;;;18.77;46.66;97582.34;10410707;27;1956;-76
2024/04/01 09:54:10;;;;;;;;;;;;;;;18.77;46.65;97591.09;10409076;28;932;-71
2024/04/01 09:59:06;;;;;;;;;;;;;;;18.77;46.76;97588.47;10410227;28;867;-71
2024/04/01 10:04:02;;;;;;;;;;;;;;;18.78;46.72;97587.47;10410530;28;1003;-71
2024/04/01 10:08:58;;;;;;;;;;;;;;;18.79;46.74;97597.09;10409054;28;1862;-70
2024/04/01 10:13:54;;;;;;;;;;;;;;;18.79;46.79;97618.22;10408943;28;763;-82
2024/04/01 10:18:50;;;;;;;;;;;;;;;18.79;46.79;97618.22;10409995;28;889;-71
2024/04/01 10:23:45;;;;;;;;;;;;;;;18.80;46.71;97608.47;10409243;28;952;-72
2024/04/01 10:28:41;;;;;;;;;;;;;;;18.80;46.81;97609.31;10408592;28;1901;-71
2024/04/01 10:33:39;;;;;;;;;;;;;;;18.81;46.55;97618.94;10407612;28;1156;-71
2024/04/01 10:38:37;;;;;;;;;;;;;;;18.82;46.83;97627.69;10408085;28;889;-71
2024/04/01 10:43:33;;;;;;;;;;;;;;;18.82;46.82;97627.69;10408674;28;841;-71
2024/04/01 10:48:29;;;;;;;;;;;;;;;18.83;47.07;97630.19;10407388;28;1913;-71
2024/04/01 10:53:25;;;;;;;;;;;;;;;18.85;46.82;97629.22;10406940;28;950;-72
2024/04/01 10:58:20;;;;;;;;;;;;;;;18.85;46.94;97637.16;10407762;28;769;-71
2024/04/01 11:03:16;;;;;;;;;;;;;;;18.85;47.03;97640.63;10407593;28;819;-70
2024/04/01 11:08:12;;;;;;;;;;;;;;;18.86;46.97;97631.72;10408761;28;1967;-71
2024/04/01 11:13:09;;;;;;;;;;;;;;;18.87;47.04;97638.69;10408074;28;834;-71
2024/04/01 11:18:04;;;;;;;;;;;;;;;18.86;47.01;97647.56;10407307;28;1015;-70
2024/04/01 11:23:00;;;;;;;;;;;;;;;18.86;47.04;97654.66;10407341;28;853;-71
2024/04/01 11:27:56;;;;;;;;;;;;;;;18.85;46.92;97659.09;10407369;28;1910;-71
2024/04/01 11:32:52;;;;;;;;;;;;;;;18.85;46.82;97669.66;10407221;28;910;-73
2024/04/01 11:37:48;;;;;;;;;;;;;;;18.86;46.91;97681.06;10408491;28;897;-70
2024/04/01 11:42:44;;;;;;;;;;;;;;;18.86;46.84;97679.25;10407921;28;879;-71
2024/04/01 11:47:40;;;;;;;;;;;;;;;18.85;46.89;97693.41;10407265;28;1959;-71
2024/04/01 11:52:35;;;;;;;;;;;;;;;18.86;46.95;97720.66;10406715;28;838;-71
2024/04/01 11:57:32;;;;;;;;;;;;;;;18.86;47.07;97720.66;10406587;28;930;-71
2024/04/01 12:02:28;;;;;;;;;;;;;;;18.87;47.06;97733.72;10407190;28;779;-71
2024/04/01 12:07:26;;;;;;;;;;;;;;;18.86;46.97;97734.66;10413598;28;1897;-71
2024/04/01 12:12:21;;;;;;;;;;;;;;;18.86;47.05;97750.50;10414762;28;806;-71
2024/04/01 12:17:17;;;;;;;;;;;;;;;18.86;47.02;97763.72;10413527;28;885;-72
2024/04/01 12:22:13;;;;;;;;;;;;;;;18.86;47.05;97773.44;10413644;28;973;-71
2024/04/01 12:27:09;;;;;;;;;;;;;;;18.86;46.93;97789.28;10412543;28;1918;-70
2024/04/01 12:32:05;;;;;;;;;;;;;;;18.86;46.96;97797.19;10413617;28;964;-70
2024/04/01 12:37:01;;;;;;;;;;;;;;;18.87;46.92;97807.66;10413459;28;872;-70
2024/04/01 12:41:57;;;;;;;;;;;;;;;18.86;47.12;97821.78;10413153;28;783;-71
2024/04/01 12:46:53;;;;;;;;;;;;;;;18.88;47.17;97834.88;10412237;28;1942;-74
2024/04/01 12:51:49;;;;;;;;;;;;;;;18.87;47.17;97841.97;10411970;28;951;-70
2024/04/01 12:56:45;;;;;;;;;;;;;;;18.86;46.88;97831.50;10411732;28;850;-70
2024/04/01 13:01:41;;;;;;;;;;;;;;;18.87;47.02;97849.88;10412178;28;846;-71
2024/04/01 13:06:36;;;;;;;;;;;;;;;18.88;46.83;97848.06;10411949;28;872;-70
2024/04/01 13:11:33;;;;;;;;;;;;;;;18.89;46.90;97849.75;10411058;28;1881;-70
2024/04/01 13:16:28;;;;;;;;;;;;;;;18.90;46.84;97862.00;10410803;28;806;-70
2024/04/01 13:21:24;;;;;;;;;;;;;;;18.90;46.83;97862.00;10410793;28;830;-71
2024/04/01 13:26:20;;;;;;;;;;;;;;;18.89;46.96;97870.88;10410913;28;1135;-71
2024/04/01 13:31:16;;;;;;;;;;;;;;;18.87;46.91;97868.34;10410211;28;1910;-70
2024/04/01 13:36:12;;;;;;;;;;;;;;;18.88;46.96;97888.50;10411555;28;972;-70
2024/04/01 13:41:08;;;;;;;;;;;;;;;18.86;46.92;97885.13;10409952;28;840;-70
2024/04/01 13:46:04;;;;;;;;;;;;;;;18.85;47.00;97894.03;10409732;28;874;-70
2024/04/01 13:50:59;;;;;;;;;;;;;;;18.84;46.87;97902.91;10409290;28;1922;-70
2024/04/01 13:55:55;;;;;;;;;;;;;;;18.82;46.98;97904.81;10409941;28;850;-70
2024/04/01 14:00:51;;;;;;;;;;;;;;;18.80;46.75;97910.22;10409225;28;779;-70
2024/04/01 14:05:47;;;;;;;;;;;;;;;18.80;46.88;97914.66;10409908;28;893;-70
2024/04/01 14:10:43;;;;;;;;;;;;;;;18.80;46.87;97918.13;10408967;28;1897;-70
2024/04/01 14:15:39;;;;;;;;;;;;;;;18.79;46.90;97936.75;10409248;27;921;-71
2024/04/01 14:20:35;;;;;;;;;;;;;;;18.78;47.07;97933.22;10409312;28;889;-70
2024/04/01 14:25:31;;;;;;;;;;;;;;;18.77;46.86;97938.66;10408596;28;1111;-72
2024/04/01 14:30:27;;;;;;;;;;;;;;;18.77;46.83;97957.13;10408546;28;1972;-71
2024/04/01 14:35:23;;;;;;;;;;;;;;;18.76;46.51;97963.38;10408226;28;889;-70
2024/04/01 14:40:19;;;;;;;;;;;;;;;18.76;46.67;97963.38;10408140;28;778;-71
2024/04/01 14:45:15;;;;;;;;;;;;;;;18.74;46.81;97963.44;10408601;28;830;-77
2024/04/01 14:50:11;;;;;;;;;;;;;;;18.74;46.66;97971.38;10407855;28;1901;-70
2024/04/01 14:55:07;;;;;;;;;;;;;;;18.73;46.63;97974.97;10407823;28;791;-70
2024/04/01 15:00:04;;;;;;;;;;;;;;;18.74;46.59;97966.09;10408282;28;885;-70
2024/04/01 15:05:00;;;;;;;;;;;;;;;18.74;46.60;97973.16;10407260;28;972;-70
2024/04/01 15:09:55;;;;;;;;;;;;;;;18.73;46.61;97980.25;10407456;28;1981;-70
2024/04/01 15:14:51;;;;;;;;;;;;;;;18.74;46.58;97978.44;10407423;28;796;-70
2024/04/01 15:19:47;;;;;;;;;;;;;;;18.73;46.73;97980.25;10406754;28;881;-71
2024/04/01 15:24:43;;;;;;;;;;;;;;;18.74;46.59;97987.19;10407685;28;1163;-70
2024/04/01 15:29:39;;;;;;;;;;;;;;;18.75;46.83;97998.63;10407846;28;1910;-70
2024/04/01 15:34:35;;;;;;;;;;;;;;;18.75;46.63;98009.19;10407228;28;932;-72
2024/04/01 15:39:31;;;;;;;;;;;;;;;18.76;46.61;98005.59;10410733;28;1020;-71
2024/04/01 15:44:26;;;;;;;;;;;;;;;18.76;46.53;98002.97;10414896;28;905;-71
2024/04/01 15:49:22;;;;;;;;;;;;;;;18.75;46.64;98004.72;10415443;28;1957;-71
2024/04/01 15:54:18;;;;;;;;;;;;;;;18.76;46.71;98011.72;10414724;28;996;-71
2024/04/01 15:59:17;;;;;;;;;;;;;;;18.77;46.76;98017.84;10414329;28;831;-70
2024/04/01 16:04:13;;;;;;;;;;;;;;;18.78;46.64;98019.50;10413512;28;994;-70
2024/04/01 16:09:08;;;;;;;;;;;;;;;18.77;46.65;98017.84;10413890;28;1951;-70
2024/04/01 16:14:04;;;;;;;;;;;;;;;18.77;46.63;98023.94;10413180;28;920;-70
2024/04/01 16:19:01;;;;;;;;;;;;;;;18.77;46.65;98020.47;10414114;28;846;-70
2024/04/01 16:23:57;;;;;;;;;;;;;;;18.77;46.77;98028.38;10412592;27;1320;-70
2024/04/01 16:28:53;;;;;;;;;;;;;;;18.78;46.75;98037.97;10412515;28;1902;-71
2024/04/01 16:33:49;;;;;;;;;;;;;;;18.78;46.69;98033.53;10413005;27;841;-70
2024/04/01 16:38:45;;;;;;;;;;;;;;;18.80;46.90;98041.34;10412681;28;847;-71
2024/04/01 16:43:41;;;;;;;;;;;;;;;18.79;46.71;98042.31;10412938;28;906;-71
2024/04/01 16:48:36;;;;;;;;;;;;;;;18.80;46.78;98044.00;10412093;28;1886;-71
2024/04/01 16:53:36;;;;;;;;;;;;;;;18.79;46.88;98050.25;10410832;28;837;-70
2024/04/01 16:58:31;;;;;;;;;;;;;;;18.79;46.79;98048.44;10412503;28;876;-70
2024/04/01 17:03:27;;;;;;;;;;;;;;;18.78;46.84;98045.91;10411011;28;921;-70
2024/04/01 17:08:23;;;;;;;;;;;;;;;18.78;46.83;98041.47;10411339;27;1890;-70
2024/04/01 17:13:19;;;;;;;;;;;;;;;18.77;46.77;98049.50;10411145;28;944;-70
2024/04/01 17:18:15;;;;;;;;;;;;;;;18.76;46.96;98053.94;10411344;28;777;-70
2024/04/01 17:23:11;;;;;;;;;;;;;;;18.76;46.83;98056.59;10410832;28;780;-70
2024/04/01 17:28:07;;;;;;;;;;;;;;;18.75;46.84;98049.59;10411072;27;1906;-70
2024/04/01 17:33:03;;;;;;;;;;;;;;;18.75;46.79;98054.06;10410580;27;959;-70
2024/04/01 17:37:58;;;;;;;;;;;;;;;18.73;47.00;98051.50;10410792;28;856;-70
2024/04/01 17:42:54;;;;;;;;;;;;;;;18.74;46.89;98057.63;10410603;28;818;-70
2024/04/01 17:47:50;;;;;;;;;;;;;;;18.73;46.87;98059.44;10411069;28;1955;-70
2024/04/01 17:52:46;;;;;;;;;;;;;;;18.73;46.90;98061.19;10410182;28;893;-70
2024/04/01 17:57:42;;;;;;;;;;;;;;;18.72;46.90;98060.38;10408761;28;972;-70
2024/04/01 18:02:38;;;;;;;;;;;;;;;18.72;46.79;98070.09;10409771;28;771;-70
2024/04/01 18:07:34;;;;;;;;;;;;;;;18.73;46.68;98069.13;10408323;28;1894;-70
2024/04/01 18:12:30;;;;;;;;;;;;;;;18.73;46.92;98077.91;10409598;28;877;-70
2024/04/01 18:17:25;;;;;;;;;;;;;;;18.72;46.86;98080.66;10408499;28;883;-70
2024/04/01 18:22:21;;;;;;;;;;;;;;;18.73;46.86;98085.81;10408657;28;818;-70
2024/04/01 18:27:17;;;;;;;;;;;;;;;18.71;46.89;98079.81;10408783;28;1909;-70
2024/04/01 18:32:13;;;;;;;;;;;;;;;18.73;47.00;98090.22;10408272;28;980;-70
2024/04/01 18:37:09;;;;;;;;;;;;;;;18.73;46.97;98091.09;10408003;28;829;-70
2024/04/01 18:42:06;;;;;;;;;;;;;;;18.73;46.93;98093.75;10408552;28;899;-70
2024/04/01 18:47:02;;;;;;;;;;;;;;;18.74;46.83;98102.50;10408511;28;1897;-70
2024/04/01 18:51:58;;;;;;;;;;;;;;;18.75;46.78;98098.91;10407845;28;847;-70
2024/04/01 18:56:54;;;;;;;;;;;;;;;18.74;46.86;98103.31;10407666;28;921;-70
2024/04/01 19:01:50;;;;;;;;;;;;;;;18.74;46.89;98113.88;10408824;28;814;-70
2024/04/01 19:06:52;;;;;;;;;;;;;;;18.75;46.81;98125.31;10406779;28;846;-70
2024/04/01 19:11:48;;;;;;;;;;;;;;;18.75;46.79;98120.88;10407201;28;1901;-70
2024/04/01 19:16:44;;;;;;;;;;;;;;;18.75;46.64;98122.66;10414627;28;842;-70
2024/04/01 19:21:40;;;;;;;;;;;;;;;18.75;46.87;98133.22;10415685;28;972;-70
2024/04/01 19:26:36;;;;;;;;;;;;;;;18.74;46.88;98139.44;10414707;28;1328;-70
2024/04/01 19:31:32;;;;;;;;;;;;;;;18.75;46.80;98135.88;10415156;28;1910;-70
2024/04/01 19:36:29;;;;;;;;;;;;;;;18.75;46.64;98136.72;10415428;28;1630;-70
2024/04/01 19:41:25;;;;;;;;;;;;;;;18.75;46.81;98135.88;10415379;28;866;-70
2024/04/01 19:46:21;;;;;;;;;;;;;;;18.74;46.71;98144.72;10415223;28;826;-70
2024/04/01 19:51:17;;;;;;;;;;;;;;;18.74;46.72;98140.28;10414947;28;1898;-70
2024/04/01 19:56:13;;;;;;;;;;;;;;;18.72;46.69;98142.19;10414810;28;806;-70
2024/04/01 20:01:09;;;;;;;;;;;;;;;18.71;46.76;98142.31;10413656;28;782;-70
2024/04/01 20:06:05;;;;;;;;;;;;;;;18.71;46.69;98139.69;10414418;28;874;-71
2024/04/01 20:11:01;;;;;;;;;;;;;;;18.70;46.71;98137.97;10413635;27;2004;-70
2024/04/01 20:15:57;;;;;;;;;;;;;;;18.69;46.78;98147.69;10414068;28;815;-70
2024/04/01 20:20:52;;;;;;;;;;;;;;;18.69;46.72;98138.94;10413317;28;814;-70
2024/04/01 20:25:48;;;;;;;;;;;;;;;18.68;46.65;98145.16;10413061;28;1472;-70
2024/04/01 20:30:44;;;;;;;;;;;;;;;18.67;46.61;98146.94;10412936;28;1967;-70
2024/04/01 20:35:40;;;;;;;;;;;;;;;18.66;46.46;98141.81;10412958;28;1567;-70
2024/04/01 20:40:36;;;;;;;;;;;;;;;18.66;46.50;98137.34;10412619;28;972;-70
2024/04/01 20:45:32;;;;;;;;;;;;;;;18.65;46.57;98150.66;10411743;28;804;-70
2024/04/01 20:50:30;;;;;;;;;;;;;;;18.64;46.55;98154.25;10412697;28;1882;-71
2024/04/01 20:55:25;;;;;;;;;;;;;;;18.62;46.41;98159.63;10412739;28;860;-70
2024/04/01 21:00:21;;;;;;;;;;;;;;;18.61;46.45;98163.25;10411722;28;1003;-70
2024/04/01 21:05:17;;;;;;;;;;;;;;;18.58;46.35;98164.31;10411886;28;822;-70
2024/04/01 21:10:14;;;;;;;;;;;;;;;18.57;46.45;98185.50;10411576;28;1893;-70
2024/04/01 21:15:10;;;;;;;;;;;;;;;18.54;46.28;98178.66;10411347;28;838;-70
2024/04/01 21:20:06;;;;;;;;;;;;;;;18.53;46.09;98197.25;10410996;28;770;-70
2024/04/01 21:25:03;;;;;;;;;;;;;;;18.51;46.31;98207.06;10410713;28;1262;-70
2024/04/01 21:30:01;;;;;;;;;;;;;;;18.48;46.14;98213.41;10411063;28;1913;-70
2024/04/01 21:34:56;;;;;;;;;;;;;;;18.46;45.93;98215.28;10410268;28;907;-70
2024/04/01 21:39:52;;;;;;;;;;;;;;;18.45;46.24;98218.06;10410094;28;904;-70
2024/04/01 21:44:49;;;;;;;;;;;;;;;18.42;46.08;98219.13;10410057;28;945;-70
2024/04/01 21:49:45;;;;;;;;;;;;;;;18.40;46.07;98221.84;10409610;28;1890;-70
2024/04/01 21:54:41;;;;;;;;;;;;;;;18.38;45.85;98226.38;10409536;28;1609;-70
2024/04/01 21:59:37;;;;;;;;;;;;;;;18.36;46.08;98230.06;10409362;28;980;-70
2024/04/01 22:04:32;;;;;;;;;;;;;;;18.35;46.10;98238.94;10409705;28;809;-70
2024/04/01 22:09:28;;;;;;;;;;;;;;;18.33;46.16;98244.31;10409117;28;1893;-70
2024/04/01 22:14:24;;;;;;;;;;;;;;;18.32;45.99;98247.91;10408544;28;834;-70
2024/04/01 22:19:20;;;;;;;;;;;;;;;18.29;46.30;98250.78;10410201;28;857;-70
2024/04/01 22:24:16;;;;;;;;;;;;;;;18.27;46.42;98257.09;10408840;28;1170;-70
2024/04/01 22:29:12;;;;;;;;;;;;;;;18.26;46.26;98260.69;10409771;28;1918;-70
2024/04/01 22:34:08;;;;;;;;;;;;;;;18.23;46.43;98261.72;10408441;28;868;-70
2024/04/01 22:39:06;;;;;;;;;;;;;;;18.22;46.51;98265.31;10407739;28;893;-70
2024/04/01 22:44:02;;;;;;;;;;;;;;;18.18;46.32;98272.63;10408245;28;985;-70
2024/04/01 22:48:58;;;;;;;;;;;;;;;18.18;46.21;98277.03;10407666;28;1929;-70
2024/04/01 22:53:54;;;;;;;;;;;;;;;18.15;46.30;98279.88;10408117;28;892;-70
2024/04/01 22:58:50;;;;;;;;;;;;;;;18.11;46.44;98287.16;10407209;28;1055;-70
2024/04/01 23:03:46;;;;;;;;;;;;;;;18.10;46.32;98293.38;10407741;28;864;-70
2024/04/01 23:08:41;;;;;;;;;;;;;;;18.09;46.56;98309.31;10407432;28;1894;-70
2024/04/01 23:13:37;;;;;;;;;;;;;;;18.07;46.50;98303.28;10408273;28;860;-70
2024/04/01 23:18:33;;;;;;;;;;;;;;;18.03;46.42;98307.09;10408052;28;859;-70
2024/04/01 23:23:29;;;;;;;;;;;;;;;18.02;46.70;98314.13;10407345;28;995;-70
2024/04/01 23:28:25;;;;;;;;;;;;;;;18.00;46.64;98305.50;10407179;28;1977;-70
2024/04/01 23:33:21;;;;;;;;;;;;;;;17.99;46.56;98314.34;10407845;28;971;-70
2024/04/01 23:38:17;;;;;;;;;;;;;;;17.97;46.66;98321.50;10406871;28;1000;-70
2024/04/01 23:43:13;;;;;;;;;;;;;;;17.95;46.61;98328.69;10406986;28;829;-70
2024/04/01 23:48:09;;;;;;;;;;;;;;;17.93;46.61;98327.94;10407525;28;1956;-70
2024/04/01 23:53:05;;;;;;;;;;;;;;;17.92;46.51;98339.41;10407372;28;869;-70
2024/04/01 23:58:01;;;;;;;;;;;;;;;17.88;46.48;98336.16;10407297;28;870;-70
